Terminal Aerodrome Forecast
Issued by NWS

Home | Current Version | Previous Version | Graphics & Text | Print | Product List | Glossary On
Versions: 1 2 3 4 5 6 7 8 9 10 11 12 13 14 15 16
000
FTUS43 KGRB 291129
TAFRHI
TAF
KRHI 291129Z 2912/3012 01005KT P6SM SCT050
      TEMPO 2912/2915 4SM BR BKN050
     FM291500 06005KT P6SM SCT050 SCT100
     FM300000 VRB02KT P6SM SKC
     FM300700 00000KT 2SM BR SKC=

USA.gov is the U.S. government's official web portal to all federal, state and local government web resources and services.